EHAM/AMS METAR and TAF weather

Enter ICAO airport designator
Station Type Date Time Source
EHAM METAR 2021/09/28 04:25 UTC NOAA

EHAM 280425Z 19007KT 9999 FEW033 11/10 Q1020 NOSIG


Station Type Date Time Source
EHAM Decoded METAR 2021/09/28 04:25 UTC NOAA

Amsterdam Airport Schiphol, Netherlands (EHAM) 52-18N 004-46E -2M
Sep 28, 2021 - 12:25 AM EDT / 2021.09.28 0425 UTC
Wind: from the S (190 degrees) at 8 MPH (7 KT):0
Visibility: greater than 7 mile(s):0
Sky conditions: mostly clear
Temperature: 51 F (11 C)
Dew Point: 50 F (10 C)
Relative Humidity: 93%
Pressure (altimeter): 30.12 in. Hg (1020 hPa)
ob: EHAM 280425Z 19007KT 9999 FEW033 11/10 Q1020 NOSIG
cycle: 4

Station Type Date Time Source
EHAM TAF 2021/09/27 18:37 UTC NOAA

TAF EHAM 271730Z 2718/2824 25010KT 9999 FEW035
BECMG 2718/2720 21006KT
BECMG 2808/2811 20012KT
BECMG 2816/2818 15007KT

Example: see airport list